createdAt,value
2017-11-19T00:00:30.288Z,4.80
2017-11-19T00:02:56.340Z,4.80
2017-11-19T00:05:22.311Z,4.90
2017-11-19T00:07:48.297Z,5.00
2017-11-19T00:10:15.748Z,5.10
2017-11-19T00:12:42.828Z,5.10
2017-11-19T00:15:08.840Z,5.10
2017-11-19T00:17:35.549Z,5.10
2017-11-19T00:20:01.608Z,5.10
2017-11-19T00:22:27.696Z,5.20
2017-11-19T00:24:53.704Z,5.20
2017-11-19T00:27:20.431Z,5.00
2017-11-19T00:29:46.459Z,5.00
2017-11-19T00:32:12.444Z,5.00
2017-11-19T00:34:38.430Z,4.90
2017-11-19T00:37:04.379Z,4.80
2017-11-19T00:39:30.369Z,4.80
2017-11-19T00:41:56.390Z,4.80
2017-11-19T00:44:22.331Z,4.80
2017-11-19T00:46:49.499Z,4.80
2017-11-19T00:49:15.688Z,4.80
2017-11-19T00:51:41.647Z,4.80
2017-11-19T00:54:07.647Z,4.70
2017-11-19T00:56:33.636Z,4.60
2017-11-19T00:58:59.652Z,4.50
2017-11-19T01:01:26.414Z,4.50
2017-11-19T01:03:54.641Z,4.40
2017-11-19T01:06:20.731Z,4.40
2017-11-19T01:08:47.499Z,4.50
2017-11-19T01:11:14.223Z,4.40
2017-11-19T01:13:40.175Z,4.40
2017-11-19T01:16:06.159Z,4.40
2017-11-19T01:18:32.226Z,4.40
2017-11-19T01:20:58.254Z,4.50
2017-11-19T01:23:24.617Z,4.40
2017-11-19T01:25:50.570Z,4.40
2017-11-19T01:28:17.547Z,4.50
2017-11-19T01:30:43.543Z,4.50
2017-11-19T01:33:11.380Z,4.50
2017-11-19T01:35:37.335Z,4.50
2017-11-19T01:38:03.316Z,4.50
2017-11-19T01:40:29.872Z,4.50
2017-11-19T01:42:56.688Z,4.50
2017-11-19T01:45:22.647Z,4.50
2017-11-19T01:47:48.601Z,4.50
2017-11-19T01:50:15.330Z,4.50
2017-11-19T01:52:41.284Z,4.50
2017-11-19T01:55:11.745Z,4.50
2017-11-19T01:57:37.727Z,4.50
2017-11-19T02:00:04.741Z,4.60
2017-11-19T02:02:30.860Z,4.60
2017-11-19T02:04:57.649Z,4.50
2017-11-19T02:07:25.177Z,4.50
2017-11-19T02:09:51.168Z,4.60
2017-11-19T02:12:17.123Z,4.60
2017-11-19T02:14:43.107Z,4.70
2017-11-19T02:17:09.806Z,4.80
2017-11-19T02:19:35.807Z,4.80
2017-11-19T02:22:01.787Z,4.70
2017-11-19T02:24:27.813Z,4.70
2017-11-19T02:26:53.802Z,4.60
2017-11-19T02:29:20.514Z,4.70
2017-11-19T02:31:46.549Z,4.60
2017-11-19T02:34:12.510Z,4.70
2017-11-19T02:36:40.663Z,4.60
2017-11-19T02:39:06.656Z,4.50
2017-11-19T02:41:33.358Z,4.60
2017-11-19T02:43:59.371Z,4.50
2017-11-19T02:46:26.028Z,4.50
2017-11-19T02:48:53.396Z,4.40
2017-11-19T02:51:19.403Z,4.40
2017-11-19T02:53:46.931Z,4.50
2017-11-19T02:56:12.890Z,4.40
2017-11-19T02:58:38.875Z,4.40
2017-11-19T03:01:04.861Z,4.30
2017-11-19T03:03:30.900Z,4.20
2017-11-19T03:05:59.881Z,4.20
2017-11-19T03:08:25.895Z,4.20
2017-11-19T03:10:51.878Z,4.20
2017-11-19T03:13:17.902Z,4.30
2017-11-19T03:15:43.895Z,4.30
2017-11-19T03:18:09.846Z,4.30
2017-11-19T03:20:36.476Z,4.30
2017-11-19T03:23:02.481Z,4.30
2017-11-19T03:25:29.600Z,4.30
2017-11-19T03:27:55.692Z,4.20
2017-11-19T03:30:22.396Z,4.20
2017-11-19T03:32:48.378Z,4.20
2017-11-19T03:35:15.167Z,4.20
2017-11-19T03:37:41.126Z,4.20
2017-11-19T03:40:07.082Z,4.30
2017-11-19T03:42:33.184Z,4.30
2017-11-19T03:44:59.183Z,4.30
2017-11-19T03:47:27.343Z,4.30
2017-11-19T03:49:53.313Z,4.30
2017-11-19T03:52:22.531Z,4.30
2017-11-19T03:54:48.486Z,4.40
2017-11-19T03:57:14.474Z,4.30
2017-11-19T03:59:40.911Z,4.30
2017-11-19T04:02:06.869Z,4.30
2017-11-19T04:04:33.631Z,4.30
2017-11-19T04:06:59.863Z,4.30
2017-11-19T04:09:26.498Z,4.20
2017-11-19T04:11:52.520Z,4.20
2017-11-19T04:14:18.599Z,4.30
2017-11-19T04:16:45.291Z,4.30
2017-11-19T04:19:11.274Z,4.20
2017-11-19T04:21:38.007Z,4.30
2017-11-19T04:24:03.965Z,4.30
2017-11-19T04:26:30.763Z,4.30
2017-11-19T04:28:56.792Z,4.20
2017-11-19T04:31:22.807Z,4.30
2017-11-19T04:33:48.782Z,4.30
2017-11-19T04:36:14.756Z,4.20
2017-11-19T04:38:41.544Z,4.30
2017-11-19T04:41:07.505Z,4.30
2017-11-19T04:43:33.456Z,4.30
2017-11-19T04:45:59.863Z,4.20
2017-11-19T04:48:26.168Z,4.20
2017-11-19T04:50:52.926Z,4.30
2017-11-19T04:53:19.767Z,4.30
2017-11-19T04:55:45.734Z,4.30
2017-11-19T04:58:12.505Z,4.30
2017-11-19T05:00:38.615Z,4.30
2017-11-19T05:03:05.314Z,4.30
2017-11-19T05:05:31.353Z,4.30
2017-11-19T05:07:57.395Z,4.30
2017-11-19T05:10:25.304Z,4.20
2017-11-19T05:12:51.563Z,4.20
2017-11-19T05:15:17.590Z,4.20
2017-11-19T05:17:43.542Z,4.20
2017-11-19T05:20:10.226Z,4.10
2017-11-19T05:22:37.907Z,4.10
2017-11-19T05:25:03.882Z,4.10
2017-11-19T05:27:29.978Z,4.00
2017-11-19T05:29:56.023Z,4.00
2017-11-19T05:32:23.301Z,4.00
2017-11-19T05:34:49.242Z,4.00
2017-11-19T05:37:15.234Z,4.00
2017-11-19T05:39:41.919Z,3.80
2017-11-19T05:42:07.859Z,3.90
2017-11-19T05:44:33.927Z,3.80
2017-11-19T05:47:00.291Z,3.70
2017-11-19T05:49:27.043Z,3.60
2017-11-19T05:51:53.830Z,3.50
2017-11-19T05:54:20.991Z,3.50
2017-11-19T05:56:46.998Z,3.50
2017-11-19T05:59:13.694Z,3.50
2017-11-19T06:01:39.654Z,3.50
2017-11-19T06:04:05.657Z,3.40
2017-11-19T06:06:31.648Z,3.40
2017-11-19T06:08:57.652Z,3.40
2017-11-19T06:11:23.642Z,3.30
2017-11-19T06:13:50.342Z,3.40
2017-11-19T06:16:17.522Z,3.40
2017-11-19T06:18:44.419Z,3.50
2017-11-19T06:21:10.411Z,3.50
2017-11-19T06:23:36.358Z,3.50
2017-11-19T06:26:02.383Z,3.50
2017-11-19T06:28:28.426Z,3.50
2017-11-19T06:30:54.698Z,3.40
2017-11-19T06:33:21.447Z,3.30
2017-11-19T06:35:47.722Z,3.30
2017-11-19T06:38:13.722Z,3.40
2017-11-19T06:40:39.706Z,3.30
2017-11-19T06:43:06.772Z,3.40
2017-11-19T06:45:32.746Z,3.40
2017-11-19T06:47:58.804Z,3.40
2017-11-19T06:50:25.900Z,3.40
2017-11-19T06:52:51.841Z,3.50
2017-11-19T06:55:17.781Z,3.50
2017-11-19T06:57:43.776Z,3.50
2017-11-19T07:00:11.807Z,3.50
2017-11-19T07:02:37.948Z,3.50
2017-11-19T07:05:03.939Z,3.50
2017-11-19T07:07:30.666Z,3.60
2017-11-19T07:09:56.709Z,3.50
2017-11-19T07:12:22.718Z,3.50
2017-11-19T07:14:48.671Z,3.50
2017-11-19T07:17:14.659Z,3.50
2017-11-19T07:19:40.642Z,3.60
2017-11-19T07:22:06.622Z,3.60
2017-11-19T07:24:32.576Z,3.70
2017-11-19T07:26:58.708Z,3.80
2017-11-19T07:29:24.699Z,3.80
2017-11-19T07:31:50.698Z,3.80
2017-11-19T07:34:16.956Z,3.90
2017-11-19T07:36:42.922Z,3.90
2017-11-19T07:39:08.931Z,4.00
2017-11-19T07:41:34.865Z,4.10
2017-11-19T07:44:02.139Z,4.10
2017-11-19T07:46:28.207Z,4.20
2017-11-19T07:48:54.203Z,4.20
2017-11-19T07:51:20.193Z,4.30
2017-11-19T07:53:46.192Z,4.30
2017-11-19T07:56:12.178Z,4.30
2017-11-19T07:58:38.263Z,4.40
2017-11-19T08:01:04.990Z,4.50
2017-11-19T08:03:31.957Z,4.50
2017-11-19T08:05:58.756Z,4.50
2017-11-19T08:08:25.679Z,4.70
2017-11-19T08:10:51.687Z,4.70
2017-11-19T08:13:17.667Z,4.70
2017-11-19T08:15:43.678Z,4.60
2017-11-19T08:18:09.641Z,4.70
2017-11-19T08:20:36.383Z,4.60
2017-11-19T08:23:02.389Z,4.60
2017-11-19T08:25:28.378Z,4.70
2017-11-19T08:27:55.134Z,5.10
2017-11-19T08:30:21.850Z,5.00
2017-11-19T08:32:47.798Z,5.00
2017-11-19T08:35:13.814Z,5.20
2017-11-19T08:37:39.890Z,5.00
2017-11-19T08:40:05.893Z,4.90
2017-11-19T08:42:31.887Z,5.00
2017-11-19T08:44:58.658Z,5.00
2017-11-19T08:47:24.706Z,4.90
2017-11-19T08:49:50.698Z,5.10
2017-11-19T08:52:17.397Z,5.20
2017-11-19T08:54:43.473Z,5.20
2017-11-19T08:57:09.499Z,5.30
2017-11-19T08:59:35.731Z,5.40
2017-11-19T09:02:01.823Z,5.30
2017-11-19T09:04:28.628Z,5.50
2017-11-19T09:06:54.610Z,5.40
2017-11-19T09:09:20.666Z,5.40
2017-11-19T09:11:46.759Z,5.40
2017-11-19T09:14:12.795Z,5.40
2017-11-19T09:16:38.826Z,5.40
2017-11-19T09:19:04.819Z,5.50
2017-11-19T09:21:30.899Z,5.50
2017-11-19T09:23:56.990Z,5.50
2017-11-19T09:26:22.963Z,5.40
2017-11-19T09:28:48.950Z,5.40
2017-11-19T09:31:15.710Z,5.40
2017-11-19T09:33:41.773Z,5.40
2017-11-19T09:36:08.490Z,5.50
2017-11-19T09:38:35.198Z,5.50
2017-11-19T09:41:01.218Z,5.50
2017-11-19T09:43:27.260Z,5.60
2017-11-19T09:45:53.245Z,5.60
2017-11-19T09:48:20.009Z,5.90
2017-11-19T09:50:46.806Z,5.90
2017-11-19T09:53:12.878Z,5.90
2017-11-19T09:55:38.869Z,5.80
2017-11-19T09:58:04.887Z,5.90
2017-11-19T10:00:31.614Z,5.90
2017-11-19T10:02:57.678Z,5.80
2017-11-19T10:05:23.695Z,6.10
2017-11-19T10:07:50.386Z,6.20
2017-11-19T10:10:16.435Z,6.20
2017-11-19T10:12:42.413Z,6.20
2017-11-19T10:15:08.369Z,6.00
2017-11-19T10:17:35.146Z,6.40
2017-11-19T10:20:01.158Z,6.30
2017-11-19T10:22:27.877Z,6.40
2017-11-19T10:24:53.863Z,6.40
2017-11-19T10:27:19.815Z,6.50
2017-11-19T10:29:45.754Z,6.50
2017-11-19T10:32:11.798Z,6.40
2017-11-19T10:34:37.778Z,6.20
2017-11-19T10:37:04.510Z,6.40
2017-11-19T10:39:30.467Z,6.40
2017-11-19T10:41:57.206Z,6.40
2017-11-19T10:44:23.226Z,6.40
2017-11-19T10:46:49.230Z,6.30
2017-11-19T10:49:15.227Z,6.40
2017-11-19T10:51:42.050Z,6.40
2017-11-19T10:54:08.100Z,6.40
2017-11-19T10:56:34.116Z,6.40
2017-11-19T10:59:00.157Z,6.50
2017-11-19T11:01:26.155Z,6.60
2017-11-19T11:03:52.110Z,6.70
2017-11-19T11:06:18.110Z,6.90
2017-11-19T11:08:44.829Z,7.00
2017-11-19T11:11:10.817Z,7.00
2017-11-19T11:13:36.931Z,7.10
2017-11-19T11:16:03.720Z,7.10
2017-11-19T11:18:29.723Z,7.10
2017-11-19T11:20:56.538Z,7.10
2017-11-19T11:23:22.500Z,7.10
2017-11-19T11:25:48.462Z,7.20
2017-11-19T11:28:15.226Z,7.20
2017-11-19T11:30:41.202Z,7.20
2017-11-19T11:33:07.196Z,7.20
2017-11-19T11:35:33.275Z,7.40
2017-11-19T11:37:59.266Z,7.40
2017-11-19T11:40:25.218Z,7.30
2017-11-19T11:42:51.273Z,7.20
2017-11-19T11:45:17.238Z,7.10
2017-11-19T11:47:43.223Z,7.00
2017-11-19T11:50:09.170Z,7.00
2017-11-19T11:52:35.177Z,7.00
2017-11-19T11:55:01.882Z,7.00
2017-11-19T11:57:27.871Z,7.00
2017-11-19T11:59:54.869Z,6.90
2017-11-19T12:02:20.822Z,6.90
2017-11-19T12:04:46.784Z,7.00
2017-11-19T12:07:13.581Z,7.00
2017-11-19T12:09:39.568Z,7.00
2017-11-19T12:12:05.543Z,7.10
2017-11-19T12:14:31.550Z,7.10
2017-11-19T12:16:58.302Z,6.90
2017-11-19T12:19:25.073Z,6.90
2017-11-19T12:21:51.107Z,6.90
2017-11-19T12:24:17.866Z,6.90
2017-11-19T12:26:44.732Z,7.00
2017-11-19T12:29:10.691Z,7.00
2017-11-19T12:31:36.666Z,7.30
2017-11-19T12:34:02.603Z,7.20
2017-11-19T12:36:28.630Z,7.10
2017-11-19T12:38:54.570Z,7.20
2017-11-19T12:41:20.546Z,7.10
2017-11-19T12:43:46.487Z,7.10
2017-11-19T12:46:12.484Z,7.00
2017-11-19T12:48:38.470Z,7.00
2017-11-19T12:51:04.397Z,6.90
2017-11-19T12:53:30.419Z,6.80
2017-11-19T12:55:56.435Z,6.80
2017-11-19T12:58:23.172Z,6.80
2017-11-19T13:00:49.118Z,6.80
2017-11-19T13:03:15.122Z,6.90
2017-11-19T13:05:41.078Z,6.90
2017-11-19T13:08:07.014Z,6.90
2017-11-19T13:10:34.477Z,6.90
2017-11-19T13:13:00.520Z,6.90
2017-11-19T13:15:27.238Z,6.80
2017-11-19T13:17:53.198Z,6.80
2017-11-19T13:20:19.195Z,6.70
2017-11-19T13:22:45.163Z,6.70
2017-11-19T13:25:11.144Z,6.70
2017-11-19T13:27:37.975Z,6.70
2017-11-19T13:30:03.921Z,6.60
2017-11-19T13:32:29.944Z,6.70
2017-11-19T13:34:55.886Z,6.60
2017-11-19T13:37:22.666Z,6.50
2017-11-19T13:39:49.366Z,6.50
2017-11-19T13:42:15.365Z,6.50
2017-11-19T13:44:41.319Z,6.40
2017-11-19T13:47:07.302Z,6.30
2017-11-19T13:49:33.324Z,6.30
2017-11-19T13:51:59.351Z,6.10
2017-11-19T13:54:25.362Z,6.00
2017-11-19T13:56:51.342Z,5.70
2017-11-19T13:59:17.334Z,5.60
2017-11-19T14:01:43.364Z,5.50
2017-11-19T14:04:09.362Z,5.40
2017-11-19T14:06:35.296Z,5.30
2017-11-19T14:09:01.261Z,5.30
2017-11-19T14:11:27.281Z,5.30
2017-11-19T14:13:54.022Z,5.30
2017-11-19T14:16:19.973Z,5.30
2017-11-19T14:18:46.702Z,5.30
2017-11-19T14:21:12.741Z,5.30
2017-11-19T14:23:38.764Z,5.40
2017-11-19T14:26:04.746Z,5.40
2017-11-19T14:28:30.731Z,5.50
2017-11-19T14:30:56.732Z,5.60
2017-11-19T14:33:22.786Z,5.60
2017-11-19T14:35:48.788Z,5.60
2017-11-19T14:38:15.534Z,5.50
2017-11-19T14:40:42.320Z,5.60
2017-11-19T14:43:08.270Z,5.50
2017-11-19T14:45:34.242Z,5.70
2017-11-19T14:48:00.205Z,5.80
2017-11-19T14:50:26.890Z,5.80
2017-11-19T14:52:52.976Z,5.80
2017-11-19T14:55:18.958Z,5.70
2017-11-19T14:57:44.993Z,5.60
2017-11-19T15:00:11.027Z,5.60
2017-11-19T15:02:37.026Z,5.60
2017-11-19T15:05:03.730Z,5.60
2017-11-19T15:07:29.675Z,5.60
2017-11-19T15:09:55.663Z,5.50
2017-11-19T15:12:22.398Z,5.40
2017-11-19T15:14:48.468Z,5.40
2017-11-19T15:17:14.514Z,5.40
2017-11-19T15:19:40.465Z,5.40
2017-11-19T15:22:06.474Z,5.30
2017-11-19T15:24:32.513Z,5.30
2017-11-19T15:26:58.502Z,5.30
2017-11-19T15:29:24.474Z,5.10
2017-11-19T15:31:51.215Z,5.10
2017-11-19T15:34:17.235Z,5.10
2017-11-19T15:36:43.265Z,5.10
2017-11-19T15:39:09.242Z,5.00
2017-11-19T15:41:36.105Z,5.00
2017-11-19T15:44:02.155Z,5.00
2017-11-19T15:46:28.130Z,4.90
2017-11-19T15:48:54.066Z,4.90
2017-11-19T15:51:20.082Z,4.90
2017-11-19T15:53:46.050Z,4.90
2017-11-19T15:56:13.570Z,4.90
2017-11-19T15:58:41.103Z,4.90
2017-11-19T16:01:07.818Z,4.90
2017-11-19T16:03:33.785Z,4.90
2017-11-19T16:05:59.728Z,4.90
2017-11-19T16:08:25.706Z,4.90
2017-11-19T16:10:51.667Z,4.90
2017-11-19T16:13:17.679Z,4.90
2017-11-19T16:15:44.927Z,5.00
2017-11-19T16:18:12.746Z,5.00
2017-11-19T16:20:38.722Z,5.10
2017-11-19T16:23:05.430Z,5.20
2017-11-19T16:25:31.447Z,5.20
2017-11-19T16:27:57.394Z,5.30
2017-11-19T16:30:23.435Z,5.30
2017-11-19T16:32:49.458Z,5.30
2017-11-19T16:35:15.462Z,5.40
2017-11-19T16:37:41.477Z,5.40
2017-11-19T16:40:07.472Z,5.50
2017-11-19T16:42:33.559Z,5.60
2017-11-19T16:45:00.314Z,5.60
2017-11-19T16:47:26.326Z,5.60
2017-11-19T16:49:52.274Z,5.60
2017-11-19T16:52:18.317Z,5.70
2017-11-19T16:54:44.350Z,5.60
2017-11-19T16:57:10.338Z,5.60
2017-11-19T16:59:36.310Z,5.70
2017-11-19T17:02:02.402Z,5.60
2017-11-19T17:04:28.362Z,5.50
2017-11-19T17:06:54.332Z,5.50
2017-11-19T17:09:20.346Z,5.40
2017-11-19T17:11:46.344Z,5.30
2017-11-19T17:14:12.416Z,5.20
2017-11-19T17:16:38.409Z,5.20
2017-11-19T17:19:05.102Z,5.20
2017-11-19T17:21:31.094Z,5.20
2017-11-19T17:23:57.853Z,5.20
2017-11-19T17:26:24.734Z,5.30
2017-11-19T17:28:50.890Z,5.20
2017-11-19T17:31:16.929Z,5.30
2017-11-19T17:33:42.925Z,5.30
2017-11-19T17:36:15.775Z,5.30
2017-11-19T17:38:41.780Z,5.30
2017-11-19T17:41:07.775Z,5.40
2017-11-19T17:43:33.846Z,5.40
2017-11-19T17:45:59.826Z,5.40
2017-11-19T17:48:25.778Z,5.40
2017-11-19T17:50:51.758Z,5.30
2017-11-19T17:53:17.802Z,5.20
2017-11-19T17:55:43.837Z,5.10
2017-11-19T17:58:09.827Z,5.10
2017-11-19T18:00:35.811Z,5.10
2017-11-19T18:03:01.777Z,5.10
2017-11-19T18:05:27.774Z,5.10
2017-11-19T18:07:53.715Z,5.20
2017-11-19T18:10:19.658Z,5.20
2017-11-19T18:12:45.690Z,5.20
2017-11-19T18:15:11.675Z,5.20
2017-11-19T18:17:37.614Z,5.30
2017-11-19T18:20:03.582Z,5.30
2017-11-19T18:22:29.554Z,5.30
2017-11-19T18:24:55.567Z,5.30
2017-11-19T18:27:21.545Z,5.30
2017-11-19T18:29:47.506Z,5.30
2017-11-19T18:32:14.276Z,5.20
2017-11-19T18:34:40.321Z,5.20
2017-11-19T18:37:06.319Z,5.20
2017-11-19T18:39:33.822Z,5.10
2017-11-19T18:41:59.814Z,5.10
2017-11-19T18:44:25.810Z,5.10
2017-11-19T18:46:51.801Z,5.10
2017-11-19T18:49:17.775Z,5.10
2017-11-19T18:51:43.769Z,5.10
2017-11-19T18:54:10.491Z,5.00
2017-11-19T18:56:36.479Z,5.00
2017-11-19T18:59:03.174Z,5.00
2017-11-19T19:01:29.179Z,5.00
2017-11-19T19:03:55.130Z,5.10
2017-11-19T19:06:21.074Z,5.10
2017-11-19T19:08:47.142Z,5.10
2017-11-19T19:11:16.374Z,5.20
2017-11-19T19:13:42.400Z,5.20
2017-11-19T19:16:08.434Z,5.20
2017-11-19T19:18:34.402Z,5.20
2017-11-19T19:21:01.112Z,5.10
2017-11-19T19:23:27.100Z,5.10
2017-11-19T19:25:53.826Z,5.00
2017-11-19T19:28:19.821Z,5.00
2017-11-19T19:30:45.769Z,4.90
2017-11-19T19:33:11.732Z,4.90
2017-11-19T19:35:37.746Z,4.80
2017-11-19T19:38:03.714Z,4.80
2017-11-19T19:40:30.454Z,4.90
2017-11-19T19:42:56.477Z,4.90
2017-11-19T19:45:22.461Z,4.90
2017-11-19T19:47:49.145Z,4.70
2017-11-19T19:50:15.262Z,4.70
2017-11-19T19:52:41.229Z,4.60
2017-11-19T19:55:07.173Z,4.50
2017-11-19T19:57:33.171Z,4.50
2017-11-19T19:59:59.137Z,4.50
2017-11-19T20:02:25.154Z,4.40
2017-11-19T20:04:51.100Z,4.40
2017-11-19T20:07:17.086Z,4.30
2017-11-19T20:09:43.861Z,4.10
2017-11-19T20:12:09.846Z,4.10
2017-11-19T20:14:35.802Z,4.30
2017-11-19T20:17:01.740Z,4.40
2017-11-19T20:19:28.462Z,4.40
2017-11-19T20:21:54.426Z,4.40
2017-11-19T20:24:20.502Z,4.50
2017-11-19T20:26:46.445Z,4.50
2017-11-19T20:29:12.546Z,4.50
2017-11-19T20:31:39.271Z,4.50
2017-11-19T20:34:05.266Z,4.50
2017-11-19T20:36:31.303Z,4.60
2017-11-19T20:38:57.359Z,4.60
2017-11-19T20:41:23.338Z,4.70
2017-11-19T20:43:49.312Z,4.60
2017-11-19T20:46:15.350Z,4.70
2017-11-19T20:48:41.289Z,4.70
2017-11-19T20:51:07.294Z,4.70
2017-11-19T20:53:33.979Z,4.80
2017-11-19T20:56:00.008Z,4.80
2017-11-19T20:58:25.966Z,4.80
2017-11-19T21:00:51.965Z,4.90
2017-11-19T21:03:18.654Z,4.90
2017-11-19T21:05:44.687Z,4.90
2017-11-19T21:08:10.641Z,4.90
2017-11-19T21:10:36.639Z,4.90
2017-11-19T21:13:02.582Z,5.00
2017-11-19T21:15:28.613Z,5.00
2017-11-19T21:17:54.572Z,5.00
2017-11-19T21:20:20.610Z,5.00
2017-11-19T21:22:46.582Z,5.10
2017-11-19T21:25:12.552Z,5.20
2017-11-19T21:27:38.530Z,5.20
2017-11-19T21:30:04.493Z,5.20
2017-11-19T21:32:31.213Z,5.20
2017-11-19T21:34:57.142Z,5.20
2017-11-19T21:37:23.127Z,5.20
2017-11-19T21:39:49.802Z,5.20
2017-11-19T21:42:15.758Z,5.20
2017-11-19T21:44:41.802Z,5.30
2017-11-19T21:47:07.754Z,5.30
2017-11-19T21:49:33.694Z,5.30
2017-11-19T21:51:59.678Z,5.30
2017-11-19T21:54:25.711Z,5.30
2017-11-19T21:56:52.407Z,5.30
2017-11-19T21:59:18.413Z,5.30
2017-11-19T22:01:44.410Z,5.30
2017-11-19T22:04:10.373Z,5.30
2017-11-19T22:06:36.354Z,5.30
2017-11-19T22:09:02.351Z,5.20
2017-11-19T22:11:28.338Z,5.30
2017-11-19T22:13:54.285Z,5.30
2017-11-19T22:16:20.307Z,5.30
2017-11-19T22:18:46.250Z,5.20
2017-11-19T22:21:12.273Z,5.30
2017-11-19T22:23:38.250Z,5.20
2017-11-19T22:26:04.934Z,5.30
2017-11-19T22:28:30.909Z,5.30
2017-11-19T22:30:57.622Z,5.30
2017-11-19T22:33:23.601Z,5.20
2017-11-19T22:35:49.564Z,5.20
2017-11-19T22:38:16.270Z,5.10
2017-11-19T22:40:42.510Z,5.20
2017-11-19T22:43:08.494Z,5.10
2017-11-19T22:45:35.188Z,5.20
2017-11-19T22:48:01.228Z,5.10
2017-11-19T22:50:27.186Z,5.10
2017-11-19T22:52:53.176Z,5.10
2017-11-19T22:55:19.131Z,5.00
2017-11-19T22:57:45.126Z,5.00
2017-11-19T23:00:11.813Z,4.90
2017-11-19T23:02:37.773Z,4.90
2017-11-19T23:05:03.746Z,4.90
2017-11-19T23:07:30.430Z,4.90
2017-11-19T23:09:56.405Z,4.90
2017-11-19T23:12:22.445Z,4.90
2017-11-19T23:14:48.434Z,4.90
2017-11-19T23:17:14.503Z,4.90
2017-11-19T23:19:40.463Z,4.90
2017-11-19T23:22:06.499Z,4.90
2017-11-19T23:24:32.484Z,4.90
2017-11-19T23:26:58.482Z,4.90
2017-11-19T23:29:24.485Z,4.80
2017-11-19T23:31:50.445Z,4.80
2017-11-19T23:34:16.478Z,4.90
2017-11-19T23:36:42.565Z,4.90
2017-11-19T23:39:08.566Z,4.90
2017-11-19T23:41:34.578Z,4.90
2017-11-19T23:44:00.569Z,4.90
2017-11-19T23:46:26.526Z,4.80
2017-11-19T23:48:52.522Z,4.90
2017-11-19T23:51:19.221Z,4.80
2017-11-19T23:53:45.194Z,4.80
2017-11-19T23:56:11.170Z,4.80
2017-11-19T23:58:37.113Z,4.80
